Terminal Aerodrome Forecast
Issued by NWS Quad Cities IA IL

Home | Current Version | Previous Version | Text Only | Print | Product List | Glossary On
Versions: 1 2 3 4 5 6 7 8 9 10 11 12 13 14 15 16 17 18 19 20
846
FTUS43 KDVN 211101 AAA
TAFMLI
TAF AMD
KMLI 211101Z 2111/2206 18006KT P6SM SCT150
      TEMPO 2111/2113 5SM BR
     FM211500 20010KT P6SM SCT250=

USA.gov is the U.S. government's official web portal to all federal, state and local government web resources and services.